Overview Statistics Trail Chart Weather Telemetry Raw packets
 

This is the latest recevied weather packets stored in our database for station/object N0QWM. If no packets are shown the sender has not sent any weather packets the latest 10 day(s).

<< 56 57 58 59 60 61 62 >>
Time Temp. Humidity Pressure Rain* Wind** Luminosity Snow
1788277915 33.33° C 61% 1025.3 hPa 0 mm - 710 W/m² -
1788277610 32.78° C 62% 1025.1 hPa 0 mm - 718 W/m² -
1788277304 33.89° C 60% 1025.3 hPa 0 mm - 690 W/m² -
1788277000 33.33° C 61% 1025.3 hPa 0 mm - 707 W/m² -
1788276699 33.33° C 61% 1025.3 hPa 0 mm - 751 W/m² -
1788276394 33.33° C 63% 1025.3 hPa 0 mm - 760 W/m² -
1788276087 32.22° C 65% 1025 hPa 0 mm - 754 W/m² -
1788275783 32.78° C 64% 1025.5 hPa 0 mm - 728 W/m² -
1788275482 32.22° C 64% 1025.3 hPa 0 mm - 734 W/m² -
1788275181 32.22° C 65% 1025.5 hPa 0 mm - 769 W/m² -
1788274880 32.22° C 67% 1025.5 hPa 0 mm - 727 W/m² -
1788274579 32.22° C 67% 1025.5 hPa 0 mm - 661 W/m² -
1788274278 31.11° C 68% 1025.6 hPa 0 mm - 572 W/m² -
1788273974 31.67° C 69% 1025.4 hPa 0 mm - 599 W/m² -
1788273669 31.67° C 70% 1025.4 hPa 0 mm - 607 W/m² -
1788273364 31.11° C 72% 1025.5 hPa 0 mm - 567 W/m² -
1788273060 31.67° C 68% 1025.3 hPa 0 mm - 535 W/m² -
1788272756 31.11° C 71% 1025.5 hPa 0 mm - 500 W/m² -
1788272455 31.11° C 72% 1025.7 hPa 0 mm - 485 W/m² -
1788272150 30.56° C 71% 1025.5 hPa 0 mm - 471 W/m² -
1788271845 30° C 74% 1025.5 hPa 0 mm - 438 W/m² -
1788271555 30° C 74% 1025.4 hPa 0 mm - 416 W/m² -
1788271244 29.44° C 76% 1025.3 hPa 0 mm - 366 W/m² -
1788270943 29.44° C 76% 1025.4 hPa 0 mm - 337 W/m² -
1788270638 28.89° C 77% 1025.3 hPa 0 mm - 322 W/m² -

* Rain latest hour (hover to see other rain measurements)
** Current wind speed in m/s (hover to see current wind gust speed)